Time;durP1;ratioP1;P1;durP2;ratioP2;P2;SDS_P1;SDS_P2;PMS_P1;PMS_P2;Temp;Humidity;BMP_temperature;BMP_pressure;BME280_temperature;BME280_humidity;BME280_pressure;Samples;Min_cycle;Max_cycle;Signal;HPM_P1;HPM_P2
2023/06/20 00:01:49;;;;;;;0.93;0.60;;;11.20;99.90;;;;;;4975039;28;20220;-77
2023/06/20 00:04:22;;;;;;;1.52;0.60;;;11.40;99.90;;;;;;4975114;28;20617;-77
2023/06/20 00:06:54;;;;;;;0.57;0.40;;;11.40;99.90;;;;;;4974708;28;20279;-77
2023/06/20 00:09:25;;;;;;;0.88;0.50;;;11.50;99.90;;;;;;4975449;28;20235;-76
2023/06/20 00:11:56;;;;;;;1.33;0.50;;;11.50;99.90;;;;;;4973698;28;20335;-78
2023/06/20 00:14:30;;;;;;;0.50;0.40;;;11.60;99.90;;;;;;4974580;28;20196;-76
2023/06/20 00:17:01;;;;;;;0.50;0.50;;;11.50;99.90;;;;;;4975410;28;20230;-78
2023/06/20 00:19:34;;;;;;;1.52;0.60;;;11.60;99.90;;;;;;4973857;28;20572;-78
2023/06/20 00:22:08;;;;;;;2.63;0.50;;;11.60;99.90;;;;;;4974319;28;20224;-77
2023/06/20 00:24:39;;;;;;;2.08;0.50;;;11.60;99.90;;;;;;4975291;28;20192;-76
2023/06/20 00:27:13;;;;;;;1.88;0.63;;;11.80;99.90;;;;;;4975176;28;20204;-78
2023/06/20 00:29:44;;;;;;;3.95;0.73;;;11.90;99.90;;;;;;4974518;28;20211;-78
2023/06/20 00:32:15;;;;;;;3.60;0.57;;;11.90;99.90;;;;;;4974743;28;20212;-77
2023/06/20 00:34:48;;;;;;;0.68;0.50;;;12.00;99.90;;;;;;4974944;28;20196;-78
2023/06/20 00:37:19;;;;;;;2.28;1.15;;;12.00;99.90;;;;;;4975043;28;20561;-77
2023/06/20 00:39:51;;;;;;;1.73;0.68;;;12.10;99.90;;;;;;4974418;28;20200;-80
2023/06/20 00:42:23;;;;;;;1.88;0.52;;;12.10;99.90;;;;;;4974244;28;20303;-76
2023/06/20 00:44:54;;;;;;;1.77;0.80;;;12.30;99.90;;;;;;4974309;28;20192;-77
2023/06/20 00:47:26;;;;;;;1.77;0.63;;;12.20;99.90;;;;;;4973219;28;20671;-78
2023/06/20 00:49:59;;;;;;;2.92;0.73;;;12.30;99.90;;;;;;4972370;28;20600;-75
2023/06/20 00:52:30;;;;;;;2.05;0.60;;;12.40;99.90;;;;;;4974272;28;20200;-76
2023/06/20 00:55:02;;;;;;;0.60;0.60;;;12.50;99.90;;;;;;4975021;28;20193;-76
2023/06/20 00:57:33;;;;;;;1.13;0.60;;;12.40;99.90;;;;;;4974400;28;20263;-78
2023/06/20 01:00:11;;;;;;;2.50;0.68;;;12.40;99.90;;;;;;4974076;28;20239;-77
2023/06/20 01:02:48;;;;;;;1.25;0.50;;;12.50;99.90;;;;;;4966635;28;20247;-78
2023/06/20 01:05:27;;;;;;;1.88;0.75;;;12.90;99.90;;;;;;4973081;28;20202;-78
2023/06/20 01:08:05;;;;;;;2.08;0.55;;;12.80;99.90;;;;;;4974033;28;20568;-79
2023/06/20 01:11:03;;;;;;;1.38;0.50;;;12.80;99.90;;;;;;4974671;28;20192;-76
2023/06/20 01:13:48;;;;;;;0.82;0.55;;;12.80;99.90;;;;;;4973642;28;20215;-75
2023/06/20 01:16:25;;;;;;;1.10;0.50;;;12.90;99.90;;;;;;4974757;28;20192;-77
2023/06/20 01:19:06;;;;;;;1.48;0.55;;;13.00;99.90;;;;;;4973197;28;20196;-76
2023/06/20 01:21:43;;;;;;;2.08;0.50;;;13.10;99.90;;;;;;4974479;28;20220;-76
2023/06/20 01:24:20;;;;;;;2.45;0.55;;;13.10;99.90;;;;;;4955333;28;20197;-78
2023/06/20 01:27:01;;;;;;;0.60;0.50;;;13.10;99.90;;;;;;4955302;28;20196;-76
2023/06/20 01:29:37;;;;;;;2.85;0.70;;;13.20;99.90;;;;;;4966828;28;20203;-78
2023/06/20 01:32:13;;;;;;;1.10;0.68;;;13.30;99.90;;;;;;4973763;28;20734;-78
2023/06/20 01:34:54;;;;;;;0.93;0.57;;;13.40;99.90;;;;;;4974221;28;20207;-76
2023/06/20 01:37:28;;;;;;;1.05;0.47;;;13.50;99.90;;;;;;4974270;28;20207;-75
2023/06/20 01:40:06;;;;;;;2.40;0.60;;;13.60;99.90;;;;;;4973676;28;20214;-77
2023/06/20 01:42:38;;;;;;;0.50;0.40;;;13.70;99.90;;;;;;4973400;28;20686;-77
2023/06/20 01:45:13;;;;;;;1.00;0.45;;;13.80;99.90;;;;;;4974489;28;20198;-75
2023/06/20 01:47:45;;;;;;;0.75;0.50;;;13.90;99.90;;;;;;4972977;28;20222;-76
2023/06/20 01:50:19;;;;;;;0.85;0.47;;;14.00;99.90;;;;;;4973821;28;20204;-78
2023/06/20 01:52:53;;;;;;;0.80;0.32;;;14.00;99.90;;;;;;4973625;28;20200;-77
2023/06/20 01:55:28;;;;;;;1.45;0.40;;;14.00;99.90;;;;;;4974156;28;20219;-75
2023/06/20 01:58:01;;;;;;;0.90;0.50;;;14.10;99.90;;;;;;4973339;28;20234;-76
2023/06/20 02:00:34;;;;;;;2.53;0.40;;;14.20;99.90;;;;;;4974416;28;20672;-77
2023/06/20 02:03:06;;;;;;;1.85;0.40;;;14.40;99.90;;;;;;4977653;28;20199;-75
2023/06/20 02:05:39;;;;;;;0.50;0.40;;;14.40;99.90;;;;;;4976651;28;20270;-78
2023/06/20 02:08:11;;;;;;;0.28;0.22;;;14.50;99.90;;;;;;4976757;28;20200;-78
2023/06/20 02:10:45;;;;;;;2.10;0.45;;;14.50;99.90;;;;;;4976108;28;20558;-78
2023/06/20 02:13:17;;;;;;;2.20;0.40;;;14.50;99.90;;;;;;4977926;28;20196;-79
2023/06/20 02:15:51;;;;;;;0.60;0.30;;;14.40;99.90;;;;;;4977657;28;20198;-77
2023/06/20 02:18:22;;;;;;;0.93;0.43;;;14.50;99.90;;;;;;4976823;28;20201;-77
2023/06/20 02:20:56;;;;;;;1.02;0.40;;;14.50;99.90;;;;;;4976968;28;20572;-78
2023/06/20 02:23:30;;;;;;;1.40;0.30;;;14.60;99.90;;;;;;4977659;28;20552;-79
2023/06/20 02:26:08;;;;;;;0.57;0.30;;;14.80;99.90;;;;;;4977498;28;20206;-78
2023/06/20 02:28:42;;;;;;;2.00;0.30;;;14.90;99.90;;;;;;4976655;28;20210;-78
2023/06/20 02:31:18;;;;;;;0.63;0.30;;;14.90;99.90;;;;;;4976648;28;20726;-79
2023/06/20 02:33:52;;;;;;;0.50;0.38;;;15.00;99.90;;;;;;4976864;28;20210;-78
2023/06/20 02:36:27;;;;;;;2.28;0.40;;;15.00;99.90;;;;;;4977342;28;20203;-79
2023/06/20 02:39:01;;;;;;;0.57;0.30;;;15.00;99.90;;;;;;4975860;28;20200;-78
2023/06/20 02:41:35;;;;;;;0.20;0.20;;;15.10;99.90;;;;;;4976052;28;20220;-79
2023/06/20 02:44:07;;;;;;;0.50;0.25;;;15.20;99.90;;;;;;4975618;28;20204;-77
2023/06/20 02:46:45;;;;;;;0.63;0.30;;;15.30;99.90;;;;;;4977367;28;20200;-80
2023/06/20 02:49:21;;;;;;;0.55;0.25;;;15.30;99.90;;;;;;4975813;28;20200;-78
2023/06/20 02:52:04;;;;;;;0.73;0.30;;;15.30;99.90;;;;;;4975596;28;20210;-77
2023/06/20 02:54:45;;;;;;;1.38;0.30;;;15.30;99.90;;;;;;4975068;28;20200;-78
2023/06/20 02:57:21;;;;;;;5.85;0.57;;;15.40;99.90;;;;;;4975772;28;20219;-79
2023/06/20 03:00:00;;;;;;;1.67;0.40;;;15.40;99.90;;;;;;4974912;28;20240;-79
2023/06/20 03:02:36;;;;;;;0.50;0.32;;;15.50;99.90;;;;;;4976897;28;20224;-79
2023/06/20 03:05:17;;;;;;;2.03;0.45;;;15.50;99.90;;;;;;4977860;28;20200;-77
2023/06/20 03:07:50;;;;;;;1.00;0.30;;;15.60;99.90;;;;;;4978358;28;20295;-78
2023/06/20 03:10:23;;;;;;;1.40;0.40;;;15.60;99.90;;;;;;4977382;28;20208;-76
2023/06/20 03:12:57;;;;;;;1.92;0.60;;;15.60;99.90;;;;;;4975718;28;20243;-78
2023/06/20 03:15:30;;;;;;;2.13;0.40;;;15.60;99.90;;;;;;4975832;28;20581;-79
2023/06/20 03:18:01;;;;;;;2.17;0.30;;;15.60;99.90;;;;;;4975398;28;20201;-79
2023/06/20 03:20:32;;;;;;;0.30;0.30;;;15.60;99.90;;;;;;4975932;28;20201;-79
2023/06/20 03:23:04;;;;;;;1.38;0.20;;;15.60;99.90;;;;;;4976462;28;20227;-78
2023/06/20 03:25:35;;;;;;;1.23;0.35;;;15.70;99.90;;;;;;4976527;28;20198;-80
2023/06/20 03:28:09;;;;;;;1.75;0.30;;;15.70;99.90;;;;;;4975600;28;20283;-79
2023/06/20 03:30:40;;;;;;;1.02;0.28;;;15.70;99.90;;;;;;4977577;28;20220;-78
2023/06/20 03:33:11;;;;;;;0.60;0.30;;;15.60;99.90;;;;;;4975926;28;20200;-78
2023/06/20 03:35:42;;;;;;;1.10;0.30;;;15.60;99.90;;;;;;4976220;28;20716;-78
2023/06/20 03:38:14;;;;;;;2.35;0.38;;;15.60;99.90;;;;;;4975909;28;20283;-78
2023/06/20 03:40:45;;;;;;;2.17;0.32;;;15.60;99.90;;;;;;4968235;28;20216;-79
2023/06/20 03:43:18;;;;;;;0.20;0.20;;;15.60;99.90;;;;;;4975938;28;20238;-80
2023/06/20 03:45:50;;;;;;;0.68;0.30;;;15.60;99.90;;;;;;4975625;28;20207;-78
2023/06/20 03:48:21;;;;;;;1.33;0.30;;;15.60;99.90;;;;;;4976154;28;20610;-81
2023/06/20 03:50:52;;;;;;;1.65;0.30;;;15.50;99.90;;;;;;4974772;28;20204;-80
2023/06/20 03:53:23;;;;;;;0.60;0.30;;;15.50;99.90;;;;;;4975898;28;20207;-79
2023/06/20 03:56:02;;;;;;;0.65;0.30;;;15.50;99.90;;;;;;4975827;28;20197;-80
2023/06/20 03:58:35;;;;;;;1.30;0.50;;;15.60;99.90;;;;;;4974802;28;20232;-82
2023/06/20 04:01:08;;;;;;;4.18;0.60;;;15.60;99.90;;;;;;4975602;28;20204;-78
2023/06/20 04:03:39;;;;;;;1.92;0.40;;;15.60;99.90;;;;;;4975785;28;20208;-79
2023/06/20 04:06:10;;;;;;;2.03;0.55;;;15.60;99.90;;;;;;4975567;28;20192;-79
2023/06/20 04:08:42;;;;;;;1.50;0.47;;;15.50;99.90;;;;;;4974850;28;20200;-81
2023/06/20 04:11:13;;;;;;;0.90;0.40;;;15.50;99.90;;;;;;4975003;28;20200;-79
2023/06/20 04:13:46;;;;;;;1.05;0.45;;;15.40;99.90;;;;;;4975468;28;20200;-77
2023/06/20 04:16:17;;;;;;;0.70;0.40;;;15.40;99.90;;;;;;4975515;28;20196;-79
2023/06/20 04:18:48;;;;;;;1.33;0.30;;;15.40;99.90;;;;;;4974523;28;20204;-80
2023/06/20 04:21:20;;;;;;;1.20;0.35;;;15.30;99.90;;;;;;4975461;28;20199;-78
2023/06/20 04:23:51;;;;;;;1.13;0.30;;;15.40;99.90;;;;;;4974982;28;20193;-79
2023/06/20 04:26:22;;;;;;;1.30;0.50;;;15.30;99.90;;;;;;4975309;28;20196;-78
2023/06/20 04:28:56;;;;;;;0.93;0.50;;;15.30;99.90;;;;;;4974451;28;20664;-80
2023/06/20 04:31:27;;;;;;;0.57;0.20;;;15.40;99.90;;;;;;4975293;28;20188;-79
2023/06/20 04:33:59;;;;;;;1.17;0.50;;;15.30;99.90;;;;;;4975163;28;20234;-78
2023/06/20 04:36:34;;;;;;;0.95;0.40;;;15.20;99.90;;;;;;4974902;28;20196;-79
2023/06/20 04:39:06;;;;;;;1.17;0.47;;;15.30;99.90;;;;;;4974395;28;20210;-79
2023/06/20 04:41:38;;;;;;;0.45;0.35;;;15.30;99.90;;;;;;4974976;28;20586;-80
2023/06/20 04:44:14;;;;;;;1.67;0.40;;;15.20;99.90;;;;;;4975064;28;20196;-79
2023/06/20 04:46:46;;;;;;;1.30;0.40;;;15.20;99.90;;;;;;4974056;28;20287;-77
2023/06/20 04:49:21;;;;;;;1.45;0.43;;;15.10;99.90;;;;;;4974390;28;20251;-80
2023/06/20 04:51:53;;;;;;;2.45;0.70;;;15.20;99.90;;;;;;4974984;28;20200;-78
2023/06/20 04:54:26;;;;;;;1.38;0.38;;;15.20;99.90;;;;;;4974927;28;20649;-80
2023/06/20 04:56:58;;;;;;;1.52;0.60;;;15.20;99.90;;;;;;4974163;28;20320;-79
2023/06/20 04:59:35;;;;;;;1.88;0.40;;;15.20;99.90;;;;;;4955498;28;20244;-79
2023/06/20 05:02:09;;;;;;;1.08;0.38;;;15.20;99.90;;;;;;4955279;28;20587;-79
2023/06/20 05:04:42;;;;;;;2.25;0.60;;;15.20;99.90;;;;;;4954691;29;20674;-79
2023/06/20 05:07:15;;;;;;;2.15;0.50;;;15.20;99.90;;;;;;4955264;28;20228;-79
2023/06/20 05:09:52;;;;;;;1.58;0.38;;;15.20;99.90;;;;;;4972470;28;20218;-80
2023/06/20 05:12:24;;;;;;;0.82;0.30;;;15.20;99.90;;;;;;4973313;28;20648;-78
2023/06/20 05:15:00;;;;;;;1.48;0.30;;;15.10;99.90;;;;;;4975113;28;20197;-80
2023/06/20 05:17:33;;;;;;;0.25;0.22;;;15.10;99.90;;;;;;4973120;28;20291;-79
2023/06/20 05:20:06;;;;;;;0.52;0.40;;;15.10;99.90;;;;;;4974658;28;20648;-79
2023/06/20 05:22:39;;;;;;;1.08;0.32;;;15.10;99.90;;;;;;4972685;28;20234;-80
2023/06/20 05:25:11;;;;;;;0.30;0.30;;;15.00;99.90;;;;;;4974301;28;20250;-79
2023/06/20 05:27:44;;;;;;;0.65;0.20;;;15.00;99.90;;;;;;4973882;28;20674;-80
2023/06/20 05:30:19;;;;;;;0.63;0.40;;;15.00;99.90;;;;;;4955215;28;20248;-79
2023/06/20 05:32:52;;;;;;;1.23;0.50;;;15.00;99.90;;;;;;4954338;29;20199;-80
2023/06/20 05:35:24;;;;;;;0.77;0.40;;;15.00;99.90;;;;;;4955011;28;20284;-81
2023/06/20 05:37:59;;;;;;;0.80;0.45;;;15.00;99.90;;;;;;4958184;29;20201;-81
2023/06/20 05:40:32;;;;;;;0.88;0.40;;;14.90;99.90;;;;;;4957773;29;20196;-79
2023/06/20 05:43:05;;;;;;;2.38;0.40;;;14.80;99.90;;;;;;4970250;28;20692;-80
2023/06/20 05:45:41;;;;;;;1.08;0.50;;;14.80;99.90;;;;;;4977701;28;20196;-83
2023/06/20 05:48:13;;;;;;;1.45;0.50;;;14.80;99.90;;;;;;4978135;28;20196;-81
2023/06/20 05:50:46;;;;;;;3.28;0.73;;;14.80;99.90;;;;;;4976610;28;20266;-79
2023/06/20 05:53:20;;;;;;;1.67;0.50;;;14.80;99.90;;;;;;4960818;28;20203;-80
2023/06/20 05:55:53;;;;;;;0.93;0.57;;;14.70;99.90;;;;;;4978196;28;20311;-79
2023/06/20 05:58:25;;;;;;;1.15;0.40;;;14.60;99.90;;;;;;4977388;28;20224;-79
2023/06/20 06:00:58;;;;;;;1.05;0.47;;;14.60;99.90;;;;;;4974643;28;20197;-79
2023/06/20 06:03:31;;;;;;;2.53;0.50;;;14.60;99.90;;;;;;4977818;28;20550;-80
2023/06/20 06:06:04;;;;;;;1.80;0.50;;;14.50;99.90;;;;;;4970840;28;20208;-77
2023/06/20 06:08:40;;;;;;;1.60;0.47;;;14.40;99.90;;;;;;4973730;28;20208;-79
2023/06/20 06:11:13;;;;;;;2.33;0.60;;;14.40;99.90;;;;;;4977306;28;20235;-80
2023/06/20 06:13:47;;;;;;;1.88;0.50;;;14.30;99.90;;;;;;4976353;28;20212;-80
2023/06/20 06:16:23;;;;;;;1.25;0.57;;;14.30;99.90;;;;;;4976528;28;20304;-79
2023/06/20 06:18:55;;;;;;;1.77;0.57;;;14.20;99.90;;;;;;4977053;28;20235;-79
2023/06/20 06:21:28;;;;;;;1.00;0.50;;;14.20;99.90;;;;;;4976974;28;20283;-79
2023/06/20 06:24:01;;;;;;;1.15;0.52;;;14.10;99.90;;;;;;4976243;28;20231;-79
2023/06/20 06:26:36;;;;;;;0.80;0.60;;;14.00;99.90;;;;;;4976048;28;20251;-80
2023/06/20 06:29:11;;;;;;;1.67;0.50;;;13.90;99.90;;;;;;4976820;28;20206;-79
2023/06/20 06:31:46;;;;;;;0.98;0.55;;;13.90;99.90;;;;;;4974359;28;20614;-80
2023/06/20 06:34:20;;;;;;;0.60;0.60;;;13.80;99.90;;;;;;4975690;28;20208;-81
2023/06/20 06:36:53;;;;;;;1.70;0.52;;;13.70;99.90;;;;;;4976599;28;20214;-80
2023/06/20 06:39:25;;;;;;;1.58;0.60;;;13.70;99.90;;;;;;4972744;28;20204;-80
2023/06/20 06:41:58;;;;;;;1.92;0.70;;;13.60;99.90;;;;;;4966487;28;20683;-80
2023/06/20 06:44:30;;;;;;;1.95;0.88;;;13.60;99.90;;;;;;4972490;28;20207;-79
2023/06/20 06:47:06;;;;;;;1.50;0.75;;;13.50;99.90;;;;;;4968693;28;20215;-81
2023/06/20 06:49:39;;;;;;;3.25;0.70;;;13.40;99.90;;;;;;4964142;28;20682;-80
2023/06/20 06:52:13;;;;;;;1.45;0.70;;;13.40;99.90;;;;;;4968559;28;20215;-81
2023/06/20 06:54:45;;;;;;;2.25;0.93;;;13.30;99.90;;;;;;4972672;28;20668;-80
2023/06/20 06:57:17;;;;;;;1.27;0.77;;;13.30;99.90;;;;;;4974967;28;20647;-80
2023/06/20 06:59:50;;;;;;;2.85;0.70;;;13.20;99.90;;;;;;4963478;28;20310;-80
2023/06/20 07:02:27;;;;;;;0.82;0.68;;;13.20;99.90;;;;;;4976544;28;20220;-80
2023/06/20 07:05:00;;;;;;;1.85;1.02;;;13.10;99.90;;;;;;4974937;28;20203;-80
2023/06/20 07:07:33;;;;;;;2.05;0.90;;;13.10;99.90;;;;;;4975265;28;20227;-80
2023/06/20 07:10:09;;;;;;;2.30;1.08;;;13.00;99.90;;;;;;4973570;28;20246;-79
2023/06/20 07:12:42;;;;;;;1.52;0.77;;;13.00;99.90;;;;;;4974031;28;20208;-81
2023/06/20 07:15:15;;;;;;;1.10;0.80;;;12.90;99.90;;;;;;4963889;28;20200;-79
2023/06/20 07:17:51;;;;;;;1.23;0.90;;;12.80;99.90;;;;;;4973322;28;20258;-80
2023/06/20 07:20:24;;;;;;;1.10;0.80;;;12.80;99.90;;;;;;4973998;28;20196;-81
2023/06/20 07:22:56;;;;;;;1.42;0.80;;;12.70;99.90;;;;;;4974991;28;20302;-78
2023/06/20 07:25:29;;;;;;;0.73;0.70;;;12.70;99.90;;;;;;4975195;28;20207;-79
2023/06/20 07:28:02;;;;;;;1.70;0.70;;;12.60;99.90;;;;;;4973968;28;20574;-79
2023/06/20 07:30:38;;;;;;;2.17;0.93;;;12.50;99.90;;;;;;4971345;28;20196;-79
2023/06/20 07:33:14;;;;;;;1.00;0.80;;;12.40;99.90;;;;;;4969407;28;20203;-79
2023/06/20 07:35:46;;;;;;;2.97;1.00;;;12.40;99.90;;;;;;4970629;28;20286;-80
2023/06/20 07:38:20;;;;;;;2.33;0.95;;;12.30;99.90;;;;;;4972801;28;20196;-80
2023/06/20 07:40:52;;;;;;;2.03;1.00;;;12.30;99.90;;;;;;4974450;28;20209;-81
2023/06/20 07:43:24;;;;;;;1.77;1.20;;;12.30;99.90;;;;;;4975196;28;20232;-78
2023/06/20 07:45:57;;;;;;;1.30;0.80;;;12.20;99.90;;;;;;4973729;28;20239;-80
2023/06/20 07:48:33;;;;;;;1.42;0.90;;;12.20;99.90;;;;;;4972729;28;20192;-80
2023/06/20 07:51:06;;;;;;;0.93;0.80;;;12.10;99.90;;;;;;4973379;28;20199;-80
2023/06/20 07:53:39;;;;;;;2.55;1.10;;;12.10;99.90;;;;;;4973538;28;20204;-80
2023/06/20 07:56:12;;;;;;;1.88;0.80;;;12.00;99.90;;;;;;4956236;28;20291;-78
2023/06/20 07:58:45;;;;;;;1.75;0.90;;;12.00;99.90;;;;;;4970500;28;20584;-79
2023/06/20 08:01:17;;;;;;;2.15;1.00;;;12.00;99.90;;;;;;4969810;28;20693;-79
2023/06/20 08:03:56;;;;;;;1.65;0.82;;;12.00;99.90;;;;;;4963710;28;20742;-78
2023/06/20 08:06:29;;;;;;;1.67;0.80;;;11.90;99.90;;;;;;4968656;28;20252;-79
2023/06/20 08:09:01;;;;;;;1.30;1.00;;;11.90;99.90;;;;;;4973777;28;20296;-78
2023/06/20 08:11:34;;;;;;;1.42;0.90;;;11.90;99.90;;;;;;4973156;28;20566;-80
2023/06/20 08:14:06;;;;;;;1.27;1.00;;;11.90;99.90;;;;;;4974009;28;20263;-80
2023/06/20 08:16:41;;;;;;;2.70;1.42;;;11.80;99.90;;;;;;4973888;28;20568;-79
2023/06/20 08:19:18;;;;;;;4.57;1.30;;;11.80;99.90;;;;;;4973000;28;20663;-80
2023/06/20 08:21:59;;;;;;;3.45;1.20;;;11.80;99.90;;;;;;4974149;28;20294;-81
2023/06/20 08:24:35;;;;;;;1.58;1.05;;;11.70;99.90;;;;;;4973009;28;20222;-80
2023/06/20 08:27:08;;;;;;;1.50;1.10;;;11.70;99.90;;;;;;4966433;28;20196;-80
2023/06/20 08:29:54;;;;;;;1.50;1.00;;;11.70;99.90;;;;;;4973562;28;20204;-80
2023/06/20 08:32:49;;;;;;;1.33;1.10;;;11.70;99.90;;;;;;4968328;28;20192;-80
2023/06/20 08:35:24;;;;;;;2.05;1.17;;;11.60;99.90;;;;;;4971535;28;20287;-78
2023/06/20 08:38:05;;;;;;;2.22;1.10;;;11.60;99.90;;;;;;4974010;28;20199;-79
2023/06/20 08:41:03;;;;;;;1.98;1.00;;;11.60;99.90;;;;;;4974114;28;20204;-79
2023/06/20 08:43:37;;;;;;;1.50;1.00;;;11.60;99.90;;;;;;4963757;28;20588;-79
2023/06/20 08:46:12;;;;;;;1.45;1.00;;;11.60;99.90;;;;;;4972916;28;20285;-79
2023/06/20 08:48:43;;;;;;;1.70;1.10;;;11.60;99.90;;;;;;4969048;28;20200;-79
2023/06/20 08:51:20;;;;;;;1.95;1.10;;;11.60;99.90;;;;;;4969510;28;20208;-79
2023/06/20 08:53:53;;;;;;;2.17;1.33;;;11.60;99.90;;;;;;4973113;28;20741;-79
2023/06/20 08:56:27;;;;;;;2.10;1.40;;;11.50;99.90;;;;;;4970319;28;20270;-79
2023/06/20 08:59:03;;;;;;;1.65;1.15;;;11.50;99.90;;;;;;4971243;28;20315;-80
2023/06/20 09:01:38;;;;;;;1.48;1.20;;;11.50;99.90;;;;;;4973306;28;20216;-79
2023/06/20 09:04:11;;;;;;;2.85;1.70;;;11.40;99.90;;;;;;4970424;28;20314;-79
2023/06/20 09:06:50;;;;;;;2.28;1.25;;;11.40;99.90;;;;;;4973515;28;20660;-80
2023/06/20 09:09:22;;;;;;;3.70;1.50;;;11.40;99.90;;;;;;4974343;28;20204;-79
2023/06/20 09:11:56;;;;;;;3.03;1.60;;;11.40;99.90;;;;;;4971180;28;20214;-78
2023/06/20 09:14:32;;;;;;;3.85;1.90;;;11.30;99.90;;;;;;4972821;28;20218;-80
2023/06/20 09:17:05;;;;;;;3.53;1.73;;;11.30;99.90;;;;;;4972191;28;20230;-79
2023/06/20 09:19:48;;;;;;;2.08;1.70;;;11.30;99.90;;;;;;4971440;28;20196;-78
2023/06/20 09:22:25;;;;;;;4.43;2.00;;;11.30;99.90;;;;;;4971627;28;20207;-79
2023/06/20 09:24:58;;;;;;;3.10;2.10;;;11.30;99.90;;;;;;4966956;28;20224;-79
2023/06/20 09:27:30;;;;;;;3.35;1.70;;;11.20;99.90;;;;;;4972495;28;20212;-79
2023/06/20 09:30:04;;;;;;;2.55;1.70;;;11.30;99.90;;;;;;4973530;28;20200;-79
2023/06/20 09:32:40;;;;;;;5.95;2.10;;;11.20;99.90;;;;;;4972377;28;20192;-79
2023/06/20 09:35:14;;;;;;;2.80;1.90;;;11.20;99.90;;;;;;4973276;28;20660;-79
2023/06/20 09:37:50;;;;;;;3.85;2.58;;;11.20;99.90;;;;;;4972524;28;20258;-79
2023/06/20 09:40:23;;;;;;;4.55;2.70;;;11.10;99.90;;;;;;4972618;28;20203;-79
2023/06/20 09:43:01;;;;;;;5.00;2.80;;;11.00;99.90;;;;;;4970775;28;20204;-79
2023/06/20 09:45:34;;;;;;;4.22;2.85;;;11.00;99.90;;;;;;4970697;28;20342;-79
2023/06/20 09:48:08;;;;;;;6.22;3.30;;;10.90;99.90;;;;;;4967263;28;20210;-78
2023/06/20 09:50:41;;;;;;;6.13;3.42;;;10.90;99.90;;;;;;4972412;28;20239;-80
2023/06/20 09:53:24;;;;;;;5.47;3.33;;;10.90;99.90;;;;;;4971015;28;20250;-79
2023/06/20 09:55:59;;;;;;;6.35;3.60;;;10.80;99.90;;;;;;4962745;28;20293;-78
2023/06/20 09:58:34;;;;;;;5.93;3.40;;;10.80;99.90;;;;;;4972331;28;20699;-78
2023/06/20 10:01:07;;;;;;;4.97;3.15;;;10.80;99.90;;;;;;4973337;28;20291;-79
2023/06/20 10:03:40;;;;;;;6.63;3.28;;;10.80;99.90;;;;;;4971845;28;20766;-78
2023/06/20 10:06:12;;;;;;;8.02;3.70;;;10.70;99.90;;;;;;4971458;28;20207;-79
2023/06/20 10:08:49;;;;;;;6.97;3.65;;;10.60;99.90;;;;;;4961100;28;20200;-79
2023/06/20 10:11:22;;;;;;;5.82;3.90;;;10.70;99.90;;;;;;4970105;28;20208;-76
2023/06/20 10:13:56;;;;;;;6.47;4.00;;;10.70;99.90;;;;;;4956183;28;20299;-79
2023/06/20 10:16:34;;;;;;;8.20;4.13;;;10.60;99.90;;;;;;4970724;28;20199;-79
2023/06/20 10:19:21;;;;;;;6.70;3.90;;;10.60;99.90;;;;;;4973236;28;20203;-80
2023/06/20 10:22:01;;;;;;;7.05;3.67;;;10.60;99.90;;;;;;4967515;28;20200;-79
2023/06/20 10:24:36;;;;;;;5.25;3.00;;;10.50;99.90;;;;;;4969995;28;20366;-79
2023/06/20 10:27:07;;;;;;;3.92;2.50;;;10.50;99.90;;;;;;4974452;28;20199;-76
2023/06/20 10:29:47;;;;;;;3.95;2.50;;;10.50;99.90;;;;;;4975989;28;20204;-78
2023/06/20 10:32:32;;;;;;;4.07;2.45;;;10.50;99.90;;;;;;4974279;28;20247;-80
2023/06/20 10:38:40;;;;;;;4.75;2.33;;;10.40;99.90;;;;;;4970121;28;20208;-78
2023/06/20 10:41:16;;;;;;;3.17;1.80;;;10.50;99.90;;;;;;4976476;28;20259;-79
2023/06/20 10:44:10;;;;;;;4.25;1.77;;;10.40;99.90;;;;;;4972718;28;20255;-79
2023/06/20 10:46:50;;;;;;;3.30;1.92;;;10.50;99.90;;;;;;4971885;28;20204;-78
2023/06/20 10:49:22;;;;;;;3.03;1.40;;;10.40;99.90;;;;;;4977331;28;20200;-79
2023/06/20 10:51:57;;;;;;;2.08;1.20;;;10.40;99.90;;;;;;4975174;28;20263;-78
2023/06/20 10:54:37;;;;;;;3.75;1.30;;;10.40;99.90;;;;;;4974671;28;20239;-78
2023/06/20 10:57:14;;;;;;;3.00;1.33;;;10.50;99.90;;;;;;4976337;28;20734;-77
2023/06/20 10:59:46;;;;;;;2.05;1.20;;;10.50;99.90;;;;;;4976814;28;20330;-78
2023/06/20 11:02:21;;;;;;;2.47;1.10;;;10.50;99.90;;;;;;4973348;28;20659;-77
2023/06/20 11:05:00;;;;;;;1.90;1.30;;;10.40;99.90;;;;;;4957844;28;20236;-77
2023/06/20 11:07:33;;;;;;;2.05;1.23;;;10.40;99.90;;;;;;4974248;28;20287;-78
2023/06/20 11:10:16;;;;;;;1.80;1.20;;;10.40;99.90;;;;;;4977082;28;20200;-79
2023/06/20 11:12:53;;;;;;;1.40;1.02;;;10.40;99.90;;;;;;4976907;28;20239;-78
2023/06/20 11:15:28;;;;;;;1.80;1.08;;;10.40;99.90;;;;;;4975203;28;20210;-78
2023/06/20 11:18:00;;;;;;;1.50;1.20;;;10.40;99.90;;;;;;4976429;28;20204;-79
2023/06/20 11:20:35;;;;;;;2.72;1.50;;;10.40;99.90;;;;;;4976699;28;20295;-81
2023/06/20 11:23:10;;;;;;;3.03;1.67;;;10.40;99.90;;;;;;4975955;28;20578;-78
2023/06/20 11:25:44;;;;;;;2.88;1.30;;;10.30;99.90;;;;;;4975866;28;20626;-79
2023/06/20 11:28:23;;;;;;;2.67;1.55;;;10.30;99.90;;;;;;4958150;28;20931;-79
2023/06/20 11:30:59;;;;;;;1.58;1.35;;;10.30;99.90;;;;;;4976955;28;20208;-78
2023/06/20 11:33:33;;;;;;;2.28;1.30;;;10.30;99.90;;;;;;4959614;28;20675;-79
2023/06/20 11:36:05;;;;;;;1.95;1.15;;;10.20;99.90;;;;;;4970240;28;20207;-79
2023/06/20 11:38:42;;;;;;;1.52;1.20;;;10.10;99.90;;;;;;4962116;28;20207;-78
2023/06/20 11:41:15;;;;;;;2.30;1.40;;;10.10;99.90;;;;;;4975691;28;20210;-78
2023/06/20 11:43:54;;;;;;;1.95;1.05;;;10.00;99.90;;;;;;4975367;28;20238;-79
2023/06/20 11:46:26;;;;;;;1.25;1.10;;;10.00;99.90;;;;;;4974933;28;20291;-79
2023/06/20 11:48:58;;;;;;;2.72;1.13;;;10.00;99.90;;;;;;4975651;28;20707;-80
2023/06/20 11:51:33;;;;;;;1.45;1.13;;;10.00;99.90;;;;;;4973272;28;20200;-80
2023/06/20 11:54:07;;;;;;;3.03;1.35;;;9.90;99.90;;;;;;4975490;28;20196;-78
2023/06/20 11:56:40;;;;;;;2.75;1.20;;;9.90;99.90;;;;;;4973799;28;21831;-79
2023/06/20 11:59:16;;;;;;;1.85;1.10;;;9.80;99.90;;;;;;4975609;28;20327;-78
2023/06/20 12:01:50;;;;;;;1.30;0.98;;;9.70;99.90;;;;;;4974234;28;20279;-79
2023/06/20 12:04:24;;;;;;;1.83;1.00;;;9.70;99.90;;;;;;4972329;28;20601;-80
2023/06/20 12:07:06;;;;;;;1.50;1.20;;;9.60;99.90;;;;;;4973037;28;20203;-79
2023/06/20 12:09:43;;;;;;;1.92;0.90;;;9.60;99.90;;;;;;4973811;28;20212;-80
2023/06/20 12:12:14;;;;;;;1.25;1.10;;;9.60;99.90;;;;;;4973654;28;20643;-80
2023/06/20 12:14:51;;;;;;;1.50;1.20;;;9.60;99.90;;;;;;4974037;28;20199;-80
2023/06/20 12:17:24;;;;;;;1.70;1.25;;;9.50;99.90;;;;;;4974853;28;20196;-80
2023/06/20 12:19:57;;;;;;;1.60;1.10;;;9.50;99.90;;;;;;4976098;28;20200;-81
2023/06/20 12:22:32;;;;;;;1.58;1.10;;;9.40;99.90;;;;;;4975728;28;20687;-81
2023/06/20 12:25:05;;;;;;;1.10;0.90;;;9.40;99.90;;;;;;4974724;28;20314;-80
2023/06/20 12:27:39;;;;;;;2.40;1.10;;;9.30;99.90;;;;;;4973426;28;20690;-80
2023/06/20 12:30:20;;;;;;;1.70;1.10;;;9.30;99.90;;;;;;4974867;28;20293;-80
2023/06/20 12:32:55;;;;;;;1.25;0.93;;;9.30;99.90;;;;;;4975582;28;20283;-80
2023/06/20 12:35:27;;;;;;;1.45;0.90;;;9.20;99.90;;;;;;4975595;28;20203;-80
2023/06/20 12:38:00;;;;;;;2.13;1.10;;;9.20;99.90;;;;;;4973829;28;21046;-78
2023/06/20 12:40:33;;;;;;;1.08;0.93;;;9.10;99.90;;;;;;4974368;28;20201;-79
2023/06/20 12:43:08;;;;;;;4.07;1.00;;;9.10;99.90;;;;;;4958736;28;20212;-79
2023/06/20 12:45:46;;;;;;;1.40;0.95;;;9.10;99.90;;;;;;4973512;28;20314;-79
2023/06/20 12:48:18;;;;;;;2.00;1.00;;;9.00;99.90;;;;;;4973941;28;20350;-79
2023/06/20 12:50:53;;;;;;;1.25;0.82;;;9.10;99.90;;;;;;4974361;28;20286;-79
2023/06/20 12:53:33;;;;;;;1.73;0.90;;;9.00;99.90;;;;;;4972353;28;20203;-81
2023/06/20 12:56:19;;;;;;;0.80;0.80;;;9.00;99.90;;;;;;4965710;28;20211;-79
2023/06/20 12:58:51;;;;;;;1.85;0.82;;;9.00;99.90;;;;;;4972402;28;20251;-80
2023/06/20 13:01:25;;;;;;;0.80;0.80;;;9.00;99.90;;;;;;4973796;28;20206;-80
2023/06/20 13:03:56;;;;;;;2.88;0.93;;;9.00;99.90;;;;;;4973362;28;20263;-78
2023/06/20 13:06:27;;;;;;;1.90;0.70;;;9.00;99.90;;;;;;4967226;28;20185;-79
2023/06/20 13:08:58;;;;;;;2.47;0.60;;;9.00;99.90;;;;;;4962466;28;20714;-79
2023/06/20 13:11:30;;;;;;;0.73;0.70;;;9.00;99.90;;;;;;4974625;28;20275;-79
2023/06/20 13:14:01;;;;;;;1.90;0.80;;;9.00;99.90;;;;;;4974755;28;20192;-78
2023/06/20 13:16:34;;;;;;;1.95;0.80;;;9.00;99.90;;;;;;4967333;28;20207;-78
2023/06/20 13:19:08;;;;;;;0.85;0.57;;;8.90;99.90;;;;;;4973878;28;20307;-78
2023/06/20 13:21:39;;;;;;;1.13;0.70;;;8.90;99.90;;;;;;4971781;28;20197;-80
2023/06/20 13:24:13;;;;;;;1.08;0.73;;;9.00;99.90;;;;;;4973620;28;20204;-81
2023/06/20 13:26:44;;;;;;;1.08;0.77;;;8.90;99.90;;;;;;4973065;28;20242;-80
2023/06/20 13:29:15;;;;;;;1.50;0.80;;;8.90;99.90;;;;;;4972873;28;20719;-81